Time;durP1;ratioP1;P1;durP2;ratioP2;P2;SDS_P1;SDS_P2;PMS_P1;PMS_P2;Temp;Humidity;BMP_temperature;BMP_pressure;BME280_temperature;BME280_humidity;BME280_pressure;Samples;Min_cycle;Max_cycle;Signal;HPM_P1;HPM_P2
2021/12/27 00:01:08;;;;;;;17.70;12.38;;;3.00;99.90;;;;;;5045448;28;20116;-43
2021/12/27 00:03:34;;;;;;;20.38;14.27;;;3.00;99.90;;;;;;5046276;28;20112;-45
2021/12/27 00:05:59;;;;;;;20.60;13.65;;;3.00;99.90;;;;;;5045853;28;20028;-44
2021/12/27 00:08:25;;;;;;;21.63;14.63;;;3.00;99.90;;;;;;5044715;28;20069;-44
2021/12/27 00:10:51;;;;;;;21.23;13.00;;;3.10;99.90;;;;;;5046211;28;20041;-44
2021/12/27 00:13:17;;;;;;;18.92;13.68;;;3.00;99.90;;;;;;5048031;28;20033;-44
2021/12/27 00:15:43;;;;;;;21.30;13.93;;;3.00;99.90;;;;;;5048824;28;20143;-44
2021/12/27 00:18:09;;;;;;;22.95;15.85;;;3.00;99.90;;;;;;5050001;28;20055;-43
2021/12/27 00:20:35;;;;;;;24.23;16.23;;;3.10;99.90;;;;;;5047579;28;20524;-44
2021/12/27 00:23:01;;;;;;;21.42;14.10;;;3.10;99.90;;;;;;5047841;28;20388;-44
2021/12/27 00:25:28;;;;;;;23.42;15.60;;;3.00;99.90;;;;;;5049732;28;20135;-43
2021/12/27 00:27:53;;;;;;;21.02;14.80;;;3.00;99.90;;;;;;5049336;28;20027;-44
2021/12/27 00:30:20;;;;;;;19.88;13.40;;;3.10;99.90;;;;;;5048782;28;20119;-43
2021/12/27 00:32:46;;;;;;;22.23;14.95;;;3.10;99.90;;;;;;5048921;28;20107;-44
2021/12/27 00:35:14;;;;;;;18.42;13.38;;;3.10;99.90;;;;;;5048360;28;20564;-44
2021/12/27 00:37:41;;;;;;;17.63;12.57;;;3.10;99.90;;;;;;5049317;28;20063;-43
2021/12/27 00:40:10;;;;;;;19.17;12.45;;;3.10;99.90;;;;;;5049023;28;20480;-44
2021/12/27 00:42:36;;;;;;;17.75;12.88;;;3.10;99.90;;;;;;5048318;28;20052;-44
2021/12/27 00:45:01;;;;;;;19.08;12.88;;;3.20;99.90;;;;;;5048345;28;20424;-43
2021/12/27 00:47:27;;;;;;;22.10;13.75;;;3.20;99.90;;;;;;5049222;28;20056;-43
2021/12/27 00:49:52;;;;;;;19.83;13.52;;;3.20;99.90;;;;;;5048288;28;20032;-44
2021/12/27 00:52:18;;;;;;;18.55;12.73;;;3.20;99.90;;;;;;5049306;28;20025;-44
2021/12/27 00:54:44;;;;;;;17.83;12.68;;;3.20;99.90;;;;;;5048802;28;20035;-44
2021/12/27 00:57:09;;;;;;;20.80;14.10;;;3.20;99.90;;;;;;5047954;28;20100;-43
2021/12/27 00:59:35;;;;;;;21.77;15.05;;;3.20;99.90;;;;;;5048711;28;20488;-44
2021/12/27 01:02:00;;;;;;;19.17;13.82;;;3.20;99.90;;;;;;5048331;28;20572;-44
2021/12/27 01:04:26;;;;;;;19.42;12.57;;;3.20;99.90;;;;;;5048181;28;20035;-43
2021/12/27 01:06:52;;;;;;;19.10;13.57;;;3.20;99.90;;;;;;5048422;28;20025;-44
2021/12/27 01:09:32;;;;;;;19.00;12.57;;;3.20;99.90;;;;;;5048408;28;20033;-43
2021/12/27 01:14:54;;;;;;;20.25;13.90;;;3.30;99.90;;;;;;5028597;28;20923;-44
2021/12/27 01:17:20;;;;;;;23.35;15.63;;;3.30;99.90;;;;;;5044798;28;20028;-43
2021/12/27 01:19:46;;;;;;;20.13;13.65;;;3.30;99.90;;;;;;5048096;28;20023;-44
2021/12/27 01:22:11;;;;;;;22.00;14.35;;;3.30;99.90;;;;;;5048166;28;20040;-44
2021/12/27 01:24:37;;;;;;;17.92;13.27;;;3.30;99.90;;;;;;5047882;28;20363;-44
2021/12/27 01:27:02;;;;;;;21.33;14.73;;;3.30;99.90;;;;;;5048053;28;20024;-44
2021/12/27 01:29:29;;;;;;;19.25;13.77;;;3.30;99.90;;;;;;5048054;28;20090;-43
2021/12/27 01:31:54;;;;;;;20.02;12.90;;;3.30;99.90;;;;;;5047679;28;20025;-43
2021/12/27 01:34:22;;;;;;;25.90;15.50;;;3.30;99.90;;;;;;5047869;28;20099;-44
2021/12/27 01:36:48;;;;;;;21.27;14.40;;;3.30;99.90;;;;;;5047929;28;20079;-44
2021/12/27 01:39:14;;;;;;;21.15;14.07;;;3.30;99.90;;;;;;5047678;28;20029;-44
2021/12/27 01:41:39;;;;;;;19.48;13.07;;;3.30;99.90;;;;;;5047775;28;20033;-43
2021/12/27 01:44:05;;;;;;;22.40;14.65;;;3.30;99.90;;;;;;5047954;28;20028;-42
2021/12/27 01:46:31;;;;;;;22.75;13.93;;;3.30;99.90;;;;;;5047308;28;20834;-44
2021/12/27 01:48:57;;;;;;;19.45;13.90;;;3.30;99.90;;;;;;5047424;28;20033;-44
2021/12/27 01:51:30;;;;;;;24.13;14.27;;;3.30;99.90;;;;;;5047873;28;20028;-44
2021/12/27 01:53:58;;;;;;;22.63;14.50;;;3.30;99.90;;;;;;5047052;28;20083;-43
2021/12/27 01:56:23;;;;;;;23.52;14.77;;;3.30;99.90;;;;;;5047565;28;20060;-43
2021/12/27 01:58:51;;;;;;;23.40;15.88;;;3.30;99.90;;;;;;5047139;28;20158;-43
2021/12/27 02:01:17;;;;;;;20.15;13.80;;;3.30;99.90;;;;;;5047638;28;20037;-44
2021/12/27 02:03:43;;;;;;;22.55;13.50;;;3.30;99.90;;;;;;5047295;28;20087;-44
2021/12/27 02:06:10;;;;;;;19.92;13.15;;;3.30;99.90;;;;;;5047711;28;20043;-43
2021/12/27 02:08:38;;;;;;;20.67;13.70;;;3.30;99.90;;;;;;5046376;28;20049;-43
2021/12/27 02:11:05;;;;;;;23.85;15.10;;;3.30;99.90;;;;;;5047398;28;20383;-43
2021/12/27 02:13:31;;;;;;;18.15;13.13;;;3.40;99.90;;;;;;5046871;28;20063;-43
2021/12/27 02:15:56;;;;;;;20.85;14.68;;;3.40;99.90;;;;;;5046510;28;20029;-44
2021/12/27 02:18:22;;;;;;;19.77;12.98;;;3.30;99.90;;;;;;5047712;28;20017;-43
2021/12/27 02:20:47;;;;;;;22.33;14.30;;;3.40;99.90;;;;;;5046680;28;20116;-43
2021/12/27 02:23:16;;;;;;;18.75;12.77;;;3.40;99.90;;;;;;5047481;28;20723;-43
2021/12/27 02:25:44;;;;;;;20.25;13.65;;;3.40;99.90;;;;;;5046841;28;20029;-43
2021/12/27 02:28:11;;;;;;;18.58;12.45;;;3.40;99.90;;;;;;5046521;28;20082;-43
2021/12/27 02:30:38;;;;;;;19.90;13.27;;;3.40;99.90;;;;;;5047211;28;20763;-44
2021/12/27 02:33:05;;;;;;;17.77;12.25;;;3.40;99.90;;;;;;5046826;28;20036;-44
2021/12/27 02:35:37;;;;;;;19.27;13.13;;;3.40;99.90;;;;;;5045495;28;20108;-43
2021/12/27 02:38:06;;;;;;;20.00;12.43;;;3.40;99.90;;;;;;5047253;28;20032;-43
2021/12/27 02:40:33;;;;;;;22.17;13.68;;;3.50;99.90;;;;;;5046565;28;20259;-44
2021/12/27 02:43:06;;;;;;;17.38;11.60;;;3.50;99.90;;;;;;5046483;28;20033;-43
2021/12/27 02:45:43;;;;;;;16.02;12.23;;;3.50;99.90;;;;;;5046938;28;20075;-44
2021/12/27 02:48:10;;;;;;;16.98;12.23;;;3.50;99.90;;;;;;5046518;28;20067;-44
2021/12/27 02:50:37;;;;;;;16.40;11.30;;;3.50;99.90;;;;;;5045801;28;20037;-44
2021/12/27 02:53:05;;;;;;;15.93;11.60;;;3.50;99.90;;;;;;5047314;28;20029;-43
2021/12/27 02:55:31;;;;;;;17.95;12.55;;;3.50;99.90;;;;;;5046620;28;20028;-44
2021/12/27 02:57:56;;;;;;;19.08;12.73;;;3.50;99.90;;;;;;5045840;28;20032;-44
2021/12/27 03:00:27;;;;;;;19.38;13.27;;;3.50;99.90;;;;;;5046627;28;20091;-43
2021/12/27 03:02:53;;;;;;;17.63;12.75;;;3.60;99.90;;;;;;5046514;28;20021;-44
2021/12/27 03:05:20;;;;;;;17.83;13.20;;;3.60;99.90;;;;;;5046601;28;20024;-43
2021/12/27 03:07:48;;;;;;;17.77;12.98;;;3.60;99.90;;;;;;5046715;28;20032;-42
2021/12/27 03:10:18;;;;;;;18.58;12.70;;;3.60;99.90;;;;;;5045304;28;20741;-43
2021/12/27 03:12:45;;;;;;;16.63;12.10;;;3.60;99.90;;;;;;5046482;28;20052;-43
2021/12/27 03:15:12;;;;;;;16.92;11.63;;;3.60;99.90;;;;;;5047019;28;20040;-43
2021/12/27 03:17:38;;;;;;;19.63;13.00;;;3.60;99.90;;;;;;5045937;28;20052;-44
2021/12/27 03:20:06;;;;;;;18.23;13.25;;;3.60;99.90;;;;;;5046265;28;20032;-44
2021/12/27 03:22:32;;;;;;;19.08;13.18;;;3.60;99.90;;;;;;5046098;28;20767;-44
2021/12/27 03:24:58;;;;;;;18.60;11.80;;;3.60;99.90;;;;;;5045575;28;20029;-44
2021/12/27 03:27:24;;;;;;;15.60;11.95;;;3.60;99.90;;;;;;5046319;28;20033;-44
2021/12/27 03:29:49;;;;;;;17.60;12.45;;;3.70;99.90;;;;;;5046431;28;20040;-44
2021/12/27 03:32:17;;;;;;;19.27;12.25;;;3.70;99.90;;;;;;5045739;28;20029;-44
2021/12/27 03:34:53;;;;;;;22.05;14.07;;;3.70;99.90;;;;;;5046424;28;20044;-43
2021/12/27 03:37:19;;;;;;;19.83;13.55;;;3.70;99.90;;;;;;5046543;28;20107;-44
2021/12/27 03:39:45;;;;;;;19.58;13.13;;;3.70;99.90;;;;;;5046125;28;20041;-43
2021/12/27 03:42:10;;;;;;;23.20;13.55;;;3.70;99.90;;;;;;5046446;28;20033;-44
2021/12/27 03:44:36;;;;;;;23.95;14.70;;;3.70;99.90;;;;;;5046179;28;20064;-44
2021/12/27 03:47:02;;;;;;;21.42;14.10;;;3.70;99.90;;;;;;5045183;28;20125;-44
2021/12/27 03:49:27;;;;;;;21.70;13.43;;;3.70;99.90;;;;;;5049447;28;20053;-44
2021/12/27 03:51:53;;;;;;;20.77;12.55;;;3.70;99.90;;;;;;5049968;28;20104;-44
2021/12/27 03:54:18;;;;;;;18.63;13.05;;;3.80;99.90;;;;;;5049309;28;20068;-44
2021/12/27 03:56:44;;;;;;;20.40;12.73;;;3.80;99.90;;;;;;5049592;28;20040;-44
2021/12/27 03:59:34;;;;;;;19.13;12.70;;;3.80;99.90;;;;;;5049009;28;20025;-42
2021/12/27 04:02:00;;;;;;;19.77;11.27;;;3.80;99.90;;;;;;5050047;28;20373;-44
2021/12/27 04:04:26;;;;;;;17.90;12.43;;;3.80;99.90;;;;;;5049687;28;20484;-44
2021/12/27 04:06:51;;;;;;;23.88;12.80;;;3.80;99.90;;;;;;5049007;28;20195;-43
2021/12/27 04:09:17;;;;;;;20.25;13.27;;;3.80;99.90;;;;;;5050346;28;20041;-44
2021/12/27 04:11:43;;;;;;;21.48;13.32;;;3.80;99.90;;;;;;5049310;28;20104;-44
2021/12/27 04:14:08;;;;;;;22.08;13.27;;;3.80;99.90;;;;;;5048637;28;20025;-44
2021/12/27 04:16:34;;;;;;;20.98;13.23;;;3.80;99.90;;;;;;5049469;28;20078;-43
2021/12/27 04:18:59;;;;;;;23.30;13.43;;;3.80;99.90;;;;;;5049290;28;20114;-43
2021/12/27 04:21:25;;;;;;;25.17;14.35;;;3.90;99.90;;;;;;5049011;28;20052;-43
2021/12/27 04:23:50;;;;;;;23.73;14.45;;;3.90;99.90;;;;;;5049389;28;20492;-44
2021/12/27 04:26:16;;;;;;;21.95;14.13;;;3.90;99.90;;;;;;5050184;28;20094;-45
2021/12/27 04:28:41;;;;;;;24.35;14.45;;;3.90;99.90;;;;;;5048282;28;20194;-44
2021/12/27 04:31:07;;;;;;;20.17;13.77;;;3.90;99.90;;;;;;5049506;28;20123;-44
2021/12/27 04:33:32;;;;;;;24.10;14.13;;;3.90;99.90;;;;;;5049220;28;20052;-44
2021/12/27 04:35:58;;;;;;;23.98;14.27;;;3.90;99.90;;;;;;5048620;28;20056;-44
2021/12/27 04:38:23;;;;;;;20.75;12.82;;;3.90;99.90;;;;;;5048883;28;20429;-43
2021/12/27 04:40:51;;;;;;;25.13;14.40;;;3.90;99.90;;;;;;5049047;28;20036;-43
2021/12/27 04:43:19;;;;;;;21.13;12.43;;;4.00;99.90;;;;;;5048676;28;20421;-43
2021/12/27 04:45:46;;;;;;;22.77;14.00;;;3.90;99.90;;;;;;5049209;28;20025;-43
2021/12/27 04:48:12;;;;;;;25.08;13.65;;;4.00;99.90;;;;;;5048721;28;20575;-43
2021/12/27 04:50:38;;;;;;;24.05;14.85;;;4.00;99.90;;;;;;5048537;28;20040;-43
2021/12/27 04:53:05;;;;;;;20.40;13.40;;;4.00;99.90;;;;;;5048543;28;20028;-43
2021/12/27 04:55:34;;;;;;;25.95;14.70;;;4.00;99.90;;;;;;5048466;28;20091;-43
2021/12/27 04:58:00;;;;;;;27.02;15.98;;;4.00;99.90;;;;;;5049020;28;20025;-44
2021/12/27 05:00:26;;;;;;;28.75;16.63;;;4.00;99.90;;;;;;5048263;28;20052;-43
2021/12/27 05:02:51;;;;;;;25.60;15.80;;;4.00;99.90;;;;;;5048440;28;20067;-44
2021/12/27 05:05:17;;;;;;;28.05;16.30;;;4.00;99.90;;;;;;5048652;28;20040;-43
2021/12/27 05:07:44;;;;;;;26.40;15.85;;;4.10;99.90;;;;;;5048944;28;20044;-42
2021/12/27 05:10:10;;;;;;;25.55;15.60;;;4.10;99.90;;;;;;5048174;28;20029;-43
2021/12/27 05:12:35;;;;;;;25.42;15.95;;;4.10;99.90;;;;;;5048190;28;20095;-43
2021/12/27 05:15:03;;;;;;;22.70;15.77;;;4.10;99.90;;;;;;5048310;28;20025;-43
2021/12/27 05:17:30;;;;;;;27.40;15.60;;;4.10;99.90;;;;;;5048054;28;20449;-43
2021/12/27 05:19:55;;;;;;;28.75;15.27;;;4.10;99.90;;;;;;5048364;28;20028;-44
2021/12/27 05:22:21;;;;;;;26.90;14.85;;;4.20;99.90;;;;;;5048800;28;20031;-43
2021/12/27 05:24:46;;;;;;;22.77;14.32;;;4.20;99.90;;;;;;5047441;28;20032;-43
2021/12/27 05:27:12;;;;;;;23.50;14.55;;;4.20;99.90;;;;;;5048353;28;20460;-43
2021/12/27 05:29:38;;;;;;;23.60;14.45;;;4.20;99.90;;;;;;5047988;28;20044;-43
2021/12/27 05:32:05;;;;;;;20.13;13.63;;;4.20;99.90;;;;;;5047597;28;20035;-44
2021/12/27 05:34:31;;;;;;;24.17;15.20;;;4.20;99.90;;;;;;5048480;28;20025;-43
2021/12/27 05:36:57;;;;;;;26.83;15.63;;;4.20;99.90;;;;;;5047896;28;20431;-43
2021/12/27 05:39:23;;;;;;;23.60;14.80;;;4.30;99.90;;;;;;5047552;28;20124;-43
2021/12/27 05:41:48;;;;;;;26.80;15.55;;;4.30;99.90;;;;;;5048393;28;20025;-43
2021/12/27 05:44:15;;;;;;;26.85;16.23;;;4.30;99.90;;;;;;5048309;28;20483;-43
2021/12/27 05:46:41;;;;;;;24.50;15.13;;;4.30;99.90;;;;;;5047283;28;20028;-43
2021/12/27 05:49:07;;;;;;;27.20;16.05;;;4.30;99.90;;;;;;5047766;28;20049;-43
2021/12/27 05:51:32;;;;;;;31.02;17.42;;;4.30;99.90;;;;;;5047751;28;20774;-44
2021/12/27 05:53:58;;;;;;;30.65;18.52;;;4.30;99.90;;;;;;5047021;28;20017;-43
2021/12/27 05:56:24;;;;;;;29.23;17.80;;;4.30;99.90;;;;;;5047562;28;20033;-43
2021/12/27 05:58:50;;;;;;;25.27;16.92;;;4.30;99.90;;;;;;5047472;28;20017;-42
2021/12/27 06:01:15;;;;;;;22.27;15.10;;;4.40;99.90;;;;;;5047481;28;20789;-43
2021/12/27 06:03:41;;;;;;;23.63;14.60;;;4.40;99.90;;;;;;5047848;28;20472;-43
2021/12/27 06:06:07;;;;;;;25.08;15.82;;;4.40;99.90;;;;;;5046898;28;20175;-43
2021/12/27 06:08:33;;;;;;;26.40;16.80;;;4.40;99.90;;;;;;5047767;28;20025;-44
2021/12/27 06:10:58;;;;;;;30.08;18.45;;;4.40;99.90;;;;;;5046974;28;20036;-43
2021/12/27 06:13:24;;;;;;;29.02;17.38;;;4.40;99.90;;;;;;5046712;28;20113;-44
2021/12/27 06:15:50;;;;;;;31.83;16.23;;;4.40;99.90;;;;;;5047464;28;20059;-44
2021/12/27 06:18:15;;;;;;;22.88;15.70;;;4.50;99.90;;;;;;5048033;28;20060;-43
2021/12/27 06:20:41;;;;;;;24.00;15.05;;;4.50;99.90;;;;;;5046681;28;20098;-43
2021/12/27 06:23:07;;;;;;;20.63;13.43;;;4.50;99.90;;;;;;5047699;28;20537;-44
2021/12/27 06:25:35;;;;;;;22.33;14.50;;;4.50;99.90;;;;;;5047162;28;20043;-44
2021/12/27 06:28:01;;;;;;;22.27;14.05;;;4.50;99.90;;;;;;5046145;28;20633;-44
2021/12/27 06:30:26;;;;;;;22.02;14.10;;;4.50;99.90;;;;;;5047559;28;20037;-43
2021/12/27 06:32:52;;;;;;;22.77;13.55;;;4.50;99.90;;;;;;5047155;28;20029;-43
2021/12/27 06:35:18;;;;;;;21.88;13.98;;;4.60;99.90;;;;;;5046974;28;20477;-43
2021/12/27 06:37:45;;;;;;;19.52;13.20;;;4.60;99.90;;;;;;5046412;28;20043;-44
2021/12/27 06:40:13;;;;;;;23.25;13.77;;;4.60;99.90;;;;;;5047441;28;20057;-43
2021/12/27 06:42:40;;;;;;;22.05;13.27;;;4.60;99.90;;;;;;5046808;28;20108;-43
2021/12/27 06:45:06;;;;;;;24.30;14.25;;;4.60;99.90;;;;;;5046875;28;20029;-43
2021/12/27 06:47:31;;;;;;;21.65;13.75;;;4.60;99.90;;;;;;5046358;28;20528;-43
2021/12/27 06:49:57;;;;;;;23.10;14.02;;;4.60;99.90;;;;;;5046283;28;20622;-43
2021/12/27 06:52:24;;;;;;;22.42;14.02;;;4.60;99.90;;;;;;5046777;28;20025;-43
2021/12/27 06:54:50;;;;;;;20.30;13.43;;;4.70;99.90;;;;;;5046743;28;20473;-43
2021/12/27 06:57:18;;;;;;;20.63;13.75;;;4.70;99.90;;;;;;5046740;28;20025;-43
2021/12/27 06:59:44;;;;;;;22.83;14.20;;;4.70;99.90;;;;;;5046701;28;20428;-43
2021/12/27 07:02:10;;;;;;;21.52;14.35;;;4.70;99.90;;;;;;5045914;28;20025;-44
2021/12/27 07:04:35;;;;;;;22.63;14.50;;;4.70;99.90;;;;;;5047201;28;20025;-44
2021/12/27 07:07:01;;;;;;;24.30;14.70;;;4.80;99.90;;;;;;5046909;28;20021;-43
2021/12/27 07:09:26;;;;;;;26.17;15.30;;;4.80;99.90;;;;;;5045875;28;20120;-43
2021/12/27 07:11:52;;;;;;;22.75;15.00;;;4.80;99.90;;;;;;5047093;28;20044;-44
2021/12/27 07:14:17;;;;;;;21.05;14.90;;;4.80;99.90;;;;;;5046912;28;20063;-43
2021/12/27 07:16:43;;;;;;;26.30;15.20;;;4.80;99.90;;;;;;5045872;28;20769;-43
2021/12/27 07:19:09;;;;;;;24.55;15.48;;;4.80;99.90;;;;;;5046523;28;20029;-43
2021/12/27 07:21:34;;;;;;;27.23;16.80;;;4.80;99.90;;;;;;5047136;28;20029;-43
2021/12/27 07:24:00;;;;;;;25.55;16.33;;;4.80;99.90;;;;;;5049806;28;20048;-44
2021/12/27 07:26:25;;;;;;;22.75;14.63;;;4.80;99.90;;;;;;5050677;28;20575;-43
2021/12/27 07:28:51;;;;;;;22.13;14.95;;;4.80;99.90;;;;;;5050564;28;20052;-43
2021/12/27 07:31:17;;;;;;;22.65;14.15;;;4.80;99.90;;;;;;5050056;28;20504;-43
2021/12/27 07:33:42;;;;;;;24.02;15.68;;;4.80;99.90;;;;;;5050453;28;20040;-42
2021/12/27 07:36:10;;;;;;;22.85;15.27;;;4.90;99.90;;;;;;5050284;28;20025;-44
2021/12/27 07:38:36;;;;;;;26.13;15.43;;;4.90;99.90;;;;;;5049401;28;20013;-43
2021/12/27 07:41:02;;;;;;;19.80;14.55;;;4.90;99.90;;;;;;5050659;28;20036;-44
2021/12/27 07:43:28;;;;;;;21.10;13.93;;;4.90;99.90;;;;;;5050382;28;20025;-44
2021/12/27 07:45:54;;;;;;;19.10;13.35;;;5.00;99.90;;;;;;5049414;28;20507;-43
2021/12/27 07:48:19;;;;;;;19.17;13.90;;;5.00;99.90;;;;;;5050546;28;20408;-43
2021/12/27 07:50:45;;;;;;;21.35;13.65;;;5.00;99.90;;;;;;5049550;28;20123;-43
2021/12/27 07:53:10;;;;;;;20.58;13.55;;;5.00;99.90;;;;;;5049764;28;20493;-43
2021/12/27 07:55:36;;;;;;;20.05;13.55;;;5.10;99.90;;;;;;5049950;28;20021;-43
2021/12/27 07:58:02;;;;;;;19.95;14.15;;;5.10;99.90;;;;;;5068959;28;20028;-43
2021/12/27 08:00:28;;;;;;;18.83;13.45;;;5.10;99.90;;;;;;5055944;28;20369;-43
2021/12/27 08:02:54;;;;;;;20.05;14.57;;;5.10;99.90;;;;;;5050423;28;20032;-43
2021/12/27 08:05:20;;;;;;;22.10;13.45;;;5.10;99.90;;;;;;5049102;28;20099;-43
2021/12/27 08:07:45;;;;;;;19.70;14.25;;;5.10;99.90;;;;;;5047259;28;20111;-44
2021/12/27 08:10:12;;;;;;;20.85;13.73;;;5.10;99.90;;;;;;5048873;28;20044;-44
2021/12/27 08:12:39;;;;;;;18.02;13.55;;;5.20;99.90;;;;;;5048314;28;20029;-44
2021/12/27 08:15:09;;;;;;;20.13;14.35;;;5.20;99.90;;;;;;5048899;28;20021;-43
2021/12/27 08:17:35;;;;;;;21.80;15.65;;;5.20;99.90;;;;;;5048162;28;20021;-44
2021/12/27 08:20:03;;;;;;;21.35;13.93;;;5.20;99.90;;;;;;5048085;28;20065;-44
2021/12/27 08:22:28;;;;;;;18.58;14.23;;;5.30;99.90;;;;;;5048687;28;20483;-43
2021/12/27 08:24:54;;;;;;;18.35;12.82;;;5.30;99.90;;;;;;5048690;28;20029;-43
2021/12/27 08:27:21;;;;;;;19.70;13.95;;;5.30;99.90;;;;;;5048278;28;20063;-43
2021/12/27 08:29:47;;;;;;;19.35;13.85;;;5.30;99.90;;;;;;5048113;28;20033;-43
2021/12/27 08:32:13;;;;;;;19.52;14.63;;;5.30;99.90;;;;;;5048765;28;20087;-44
2021/12/27 08:34:39;;;;;;;18.50;14.00;;;5.40;99.90;;;;;;5047099;28;20025;-44
2021/12/27 08:37:05;;;;;;;22.60;14.82;;;5.40;99.90;;;;;;5048933;28;20338;-44
2021/12/27 08:39:31;;;;;;;17.67;13.25;;;5.40;99.90;;;;;;5047978;28;20036;-43
2021/12/27 08:41:57;;;;;;;19.10;13.23;;;5.50;99.90;;;;;;5047954;28;20052;-43
2021/12/27 08:44:23;;;;;;;16.77;12.77;;;5.50;99.90;;;;;;5048364;28;20087;-43
2021/12/27 08:46:49;;;;;;;18.02;13.05;;;5.50;99.90;;;;;;5048522;28;20036;-43
2021/12/27 08:49:14;;;;;;;16.02;12.05;;;5.60;99.90;;;;;;5047300;28;20162;-45
2021/12/27 08:51:40;;;;;;;18.67;13.57;;;5.50;99.90;;;;;;5048294;28;20033;-43
2021/12/27 08:54:06;;;;;;;20.77;13.95;;;5.60;99.90;;;;;;5048419;28;20884;-44
2021/12/27 08:56:32;;;;;;;20.38;13.68;;;5.60;99.90;;;;;;5047416;28;20040;-44
2021/12/27 08:58:58;;;;;;;17.23;12.73;;;5.60;99.90;;;;;;5048128;28;20065;-43
2021/12/27 09:01:24;;;;;;;18.00;12.02;;;5.60;99.90;;;;;;5048194;28;20456;-43
2021/12/27 09:03:49;;;;;;;18.13;13.43;;;5.60;99.90;;;;;;5047256;28;20633;-43
2021/12/27 09:06:15;;;;;;;16.08;12.00;;;5.60;99.90;;;;;;5048567;28;20029;-43
2021/12/27 09:08:41;;;;;;;15.70;11.90;;;5.60;99.90;;;;;;5047065;28;20032;-44
2021/12/27 09:11:08;;;;;;;18.95;13.43;;;5.60;99.90;;;;;;5048087;28;20066;-44
2021/12/27 09:13:38;;;;;;;15.85;12.18;;;5.60;99.90;;;;;;5047503;28;20024;-44
2021/12/27 09:16:04;;;;;;;17.50;12.75;;;5.60;99.90;;;;;;5047561;28;20495;-43
2021/12/27 09:18:32;;;;;;;18.80;13.00;;;5.60;99.90;;;;;;5047444;28;20090;-44
2021/12/27 09:20:58;;;;;;;17.05;12.45;;;5.60;99.90;;;;;;5047912;28;20028;-43
2021/12/27 09:23:24;;;;;;;17.23;12.13;;;5.60;99.90;;;;;;5046416;28;20107;-43
2021/12/27 09:25:50;;;;;;;14.75;10.85;;;5.70;99.90;;;;;;5047932;28;20116;-44
2021/12/27 09:28:16;;;;;;;16.25;11.82;;;5.70;99.90;;;;;;5047194;28;20666;-44
2021/12/27 09:30:42;;;;;;;15.55;10.88;;;5.70;99.90;;;;;;5046661;28;20041;-44
2021/12/27 09:33:08;;;;;;;15.05;11.30;;;5.70;99.90;;;;;;5047593;28;20064;-44
2021/12/27 09:35:34;;;;;;;15.88;11.70;;;5.70;99.90;;;;;;5047613;28;20021;-44
2021/12/27 09:38:00;;;;;;;16.75;12.43;;;5.80;99.90;;;;;;5046769;28;20048;-43
2021/12/27 09:40:26;;;;;;;17.55;12.40;;;5.80;99.90;;;;;;5047504;28;20203;-44
2021/12/27 09:42:53;;;;;;;14.55;11.07;;;5.80;99.90;;;;;;5046550;28;20503;-43
2021/12/27 09:45:20;;;;;;;16.63;12.27;;;5.80;99.90;;;;;;5046396;28;20086;-44
2021/12/27 09:47:48;;;;;;;17.67;13.65;;;5.80;99.90;;;;;;5047027;28;20669;-45
2021/12/27 09:50:18;;;;;;;17.63;12.45;;;5.80;99.90;;;;;;5047799;28;20036;-43
2021/12/27 09:52:44;;;;;;;15.93;12.27;;;5.80;99.90;;;;;;5047129;28;20013;-43
2021/12/27 09:55:11;;;;;;;17.98;11.88;;;5.80;99.90;;;;;;5047848;28;20481;-43
2021/12/27 09:57:37;;;;;;;18.10;13.30;;;5.90;99.90;;;;;;5047766;28;20142;-43
2021/12/27 10:00:05;;;;;;;19.17;13.63;;;5.90;99.90;;;;;;5044966;28;20492;-44
2021/12/27 10:02:36;;;;;;;20.33;13.52;;;5.90;99.90;;;;;;5047713;28;20024;-43
2021/12/27 10:05:02;;;;;;;19.42;13.45;;;5.90;99.90;;;;;;5045495;28;20439;-43
2021/12/27 10:07:29;;;;;;;18.33;13.07;;;5.90;99.90;;;;;;5047250;28;20487;-43
2021/12/27 10:09:59;;;;;;;17.35;12.95;;;5.90;99.90;;;;;;5046514;28;20048;-43
2021/12/27 10:12:26;;;;;;;18.33;12.68;;;5.80;99.90;;;;;;5046004;28;20465;-44
2021/12/27 10:15:02;;;;;;;17.02;12.90;;;5.80;99.90;;;;;;5046165;28;20033;-44
2021/12/27 10:17:32;;;;;;;17.45;12.48;;;5.80;99.90;;;;;;5061098;28;20472;-43
2021/12/27 10:20:13;;;;;;;16.90;12.70;;;5.70;99.90;;;;;;5054212;28;20032;-43
2021/12/27 10:22:45;;;;;;;14.65;11.32;;;5.70;99.90;;;;;;5045991;28;20033;-44
2021/12/27 10:25:19;;;;;;;13.07;10.32;;;5.70;99.90;;;;;;5047244;28;20464;-43
2021/12/27 10:27:47;;;;;;;12.75;10.38;;;5.80;99.90;;;;;;5046656;28;20020;-43
2021/12/27 10:30:25;;;;;;;14.35;9.98;;;5.90;99.90;;;;;;5046872;28;20063;-44
2021/12/27 10:33:07;;;;;;;15.07;10.88;;;6.00;99.90;;;;;;5047070;28;20480;-44
2021/12/27 10:35:49;;;;;;;11.55;9.07;;;6.10;99.90;;;;;;5047403;28;20028;-44
2021/12/27 10:38:16;;;;;;;14.25;10.55;;;6.20;99.90;;;;;;5047516;28;20071;-44
2021/12/27 10:40:49;;;;;;;11.35;8.70;;;6.30;99.90;;;;;;5046185;28;20032;-44
2021/12/27 10:43:18;;;;;;;13.32;10.15;;;6.30;99.90;;;;;;5047267;28;20044;-43
2021/12/27 10:45:46;;;;;;;11.88;9.50;;;6.30;99.90;;;;;;5046244;28;20021;-43
2021/12/27 10:48:19;;;;;;;11.98;9.63;;;6.40;99.90;;;;;;5045922;28;20041;-44
2021/12/27 10:50:45;;;;;;;11.63;9.52;;;6.40;99.90;;;;;;5046378;28;20507;-44
2021/12/27 10:53:14;;;;;;;11.35;9.25;;;6.40;99.90;;;;;;5047296;28;20021;-43
2021/12/27 10:55:46;;;;;;;12.68;9.93;;;6.50;99.90;;;;;;5045401;28;20033;-44
2021/12/27 10:58:22;;;;;;;14.75;10.45;;;6.50;99.90;;;;;;5046367;28;20095;-44
2021/12/27 11:00:53;;;;;;;17.55;11.82;;;6.50;99.90;;;;;;5045752;28;20079;-43
2021/12/27 11:03:33;;;;;;;12.27;10.02;;;6.40;99.90;;;;;;5046345;28;20052;-42
2021/12/27 11:06:02;;;;;;;16.80;11.95;;;6.40;99.90;;;;;;5046049;28;20028;-44
2021/12/27 11:08:28;;;;;;;19.40;12.90;;;6.50;99.90;;;;;;5045017;28;20033;-44
2021/12/27 11:10:54;;;;;;;17.77;13.35;;;6.50;99.90;;;;;;5046272;28;20037;-44
2021/12/27 11:13:21;;;;;;;16.02;12.15;;;6.50;99.90;;;;;;5046441;28;20021;-45
2021/12/27 11:15:46;;;;;;;15.32;12.20;;;6.50;99.90;;;;;;5045389;28;21198;-43
2021/12/27 11:18:13;;;;;;;16.27;12.15;;;6.50;99.90;;;;;;5046712;28;20021;-43
2021/12/27 11:20:46;;;;;;;15.23;11.48;;;6.50;99.90;;;;;;5046654;28;20029;-44
2021/12/27 11:23:13;;;;;;;15.32;11.27;;;6.50;99.90;;;;;;5045347;28;20032;-43
2021/12/27 11:25:41;;;;;;;12.93;10.02;;;6.50;99.90;;;;;;5047208;28;20387;-43
2021/12/27 11:28:33;;;;;;;13.23;10.63;;;6.50;99.90;;;;;;5046214;28;20029;-44
2021/12/27 11:31:08;;;;;;;13.20;10.13;;;6.60;99.90;;;;;;5045473;28;20463;-43
2021/12/27 11:33:55;;;;;;;12.43;9.98;;;6.70;99.90;;;;;;5046130;28;20743;-43
2021/12/27 11:36:23;;;;;;;12.02;9.15;;;6.80;99.90;;;;;;5045547;28;20848;-45
2021/12/27 11:38:49;;;;;;;11.27;8.88;;;6.90;99.90;;;;;;5045868;28;20043;-43
2021/12/27 11:41:26;;;;;;;11.25;9.30;;;7.00;99.90;;;;;;5045916;28;20037;-43
2021/12/27 11:44:00;;;;;;;11.10;8.60;;;7.00;99.90;;;;;;5044924;28;20025;-43
2021/12/27 11:46:51;;;;;;;10.70;8.93;;;7.10;99.90;;;;;;5045549;28;20033;-44
2021/12/27 11:49:36;;;;;;;9.43;8.43;;;7.20;99.90;;;;;;5043857;28;20045;-43
2021/12/27 11:52:25;;;;;;;9.77;7.95;;;7.20;99.90;;;;;;5045691;28;20033;-43
2021/12/27 11:54:59;;;;;;;10.60;8.45;;;7.20;99.90;;;;;;5035964;28;20086;-44
2021/12/27 11:57:43;;;;;;;11.20;8.63;;;7.30;99.90;;;;;;5045691;28;20095;-43
2021/12/27 12:00:17;;;;;;;12.43;9.18;;;7.30;99.90;;;;;;5037018;28;20036;-43
2021/12/27 12:02:44;;;;;;;9.50;7.85;;;7.40;99.90;;;;;;5045412;28;20075;-43
2021/12/27 12:05:10;;;;;;;11.55;8.60;;;7.40;99.90;;;;;;5045718;28;20066;-44
2021/12/27 12:07:35;;;;;;;10.00;8.55;;;7.40;99.90;;;;;;5045655;28;20099;-44
2021/12/27 12:10:15;;;;;;;11.30;9.10;;;7.50;99.90;;;;;;5048581;28;20041;-45
2021/12/27 12:12:40;;;;;;;11.88;10.13;;;7.50;99.90;;;;;;5049055;28;20029;-44
2021/12/27 12:15:08;;;;;;;12.73;10.27;;;7.60;99.90;;;;;;5049588;28;20043;-44
2021/12/27 12:17:39;;;;;;;11.35;9.50;;;7.60;99.90;;;;;;5049516;28;20072;-45
2021/12/27 12:20:07;;;;;;;11.18;9.38;;;7.60;99.90;;;;;;5048295;28;20568;-45
2021/12/27 12:22:38;;;;;;;12.52;9.52;;;7.60;99.90;;;;;;5049043;28;20393;-44
2021/12/27 12:25:16;;;;;;;10.90;9.25;;;7.60;99.90;;;;;;5049027;28;20032;-44
2021/12/27 12:28:02;;;;;;;11.48;9.82;;;7.60;99.90;;;;;;5049095;28;20109;-44
2021/12/27 12:30:39;;;;;;;12.25;9.73;;;7.60;99.90;;;;;;5048875;28;20028;-43
2021/12/27 12:33:15;;;;;;;9.13;8.07;;;7.70;99.90;;;;;;5047588;28;20560;-44
2021/12/27 12:35:41;;;;;;;11.38;9.00;;;7.70;99.90;;;;;;5045754;28;20498;-44
2021/12/27 12:38:12;;;;;;;9.20;7.90;;;7.80;99.90;;;;;;5048584;28;20017;-43
2021/12/27 12:40:38;;;;;;;10.98;9.32;;;7.80;99.90;;;;;;5047697;28;20028;-45
2021/12/27 12:43:04;;;;;;;10.50;8.68;;;7.90;99.90;;;;;;5049013;28;20365;-45